Time;durP1;ratioP1;P1;durP2;ratioP2;P2;SDS_P1;SDS_P2;PMS_P1;PMS_P2;Temp;Humidity;BMP_temperature;BMP_pressure;BME280_temperature;BME280_humidity;BME280_pressure;Samples;Min_cycle;Max_cycle;Signal;HPM_P1;HPM_P2
2023/03/28 00:01:18;;;;;;;;;;;;;;;2.86;73.66;99378.97;5088163;28;20376;-80
2023/03/28 00:03:43;;;;;;;;;;;;;;;2.99;73.56;99365.94;5091250;28;19916;-79
2023/03/28 00:06:15;;;;;;;;;;;;;;;3.23;72.90;99376.13;5084995;28;20011;-80
2023/03/28 00:08:40;;;;;;;;;;;;;;;3.04;73.02;99368.81;5088177;28;19955;-80
2023/03/28 00:11:11;;;;;;;;;;;;;;;2.85;72.89;99388.69;5088054;28;19916;-80
2023/03/28 00:13:36;;;;;;;;;;;;;;;3.01;72.99;99383.16;5089508;28;19916;-80
2023/03/28 00:16:04;;;;;;;;;;;;;;;2.90;73.80;99386.31;5088222;28;20284;-80
2023/03/28 00:18:30;;;;;;;;;;;;;;;3.06;73.31;99389.72;5082361;28;20289;-79
2023/03/28 00:20:55;;;;;;;;;;;;;;;3.17;72.75;99392.66;5090970;28;19939;-79
2023/03/28 00:23:20;;;;;;;;;;;;;;;2.91;73.53;99393.22;5086960;28;19916;-79
2023/03/28 00:25:45;;;;;;;;;;;;;;;2.98;73.14;99388.00;5075242;28;19924;-80
2023/03/28 00:28:11;;;;;;;;;;;;;;;2.54;73.22;99392.56;5086987;28;20019;-79
2023/03/28 00:30:36;;;;;;;;;;;;;;;2.89;73.07;99395.22;5069556;28;19927;-80
2023/03/28 00:33:03;;;;;;;;;;;;;;;2.90;73.07;99399.50;5082301;28;20372;-80
2023/03/28 00:35:29;;;;;;;;;;;;;;;2.63;74.36;99402.81;5073658;28;19920;-80
2023/03/28 00:37:56;;;;;;;;;;;;;;;2.71;73.92;99386.88;5065753;28;19935;-80
2023/03/28 00:40:22;;;;;;;;;;;;;;;2.67;73.88;99395.34;5087735;28;20414;-79
2023/03/28 00:42:48;;;;;;;;;;;;;;;2.95;73.68;99401.56;5072256;28;19973;-80
2023/03/28 00:45:13;;;;;;;;;;;;;;;2.76;73.56;99404.78;5094701;28;19920;-80
2023/03/28 00:47:50;;;;;;;;;;;;;;;2.53;73.51;99404.94;5086432;28;20471;-79
2023/03/28 00:50:20;;;;;;;;;;;;;;;2.66;73.85;99406.91;5082436;28;19950;-79
2023/03/28 00:52:49;;;;;;;;;;;;;;;2.84;73.91;99402.84;5087746;28;19973;-79
2023/03/28 00:55:17;;;;;;;;;;;;;;;3.00;73.37;99412.38;5088079;28;20328;-80
2023/03/28 00:57:45;;;;;;;;;;;;;;;2.80;73.97;99406.03;5087695;28;19962;-80
2023/03/28 01:00:11;;;;;;;;;;;;;;;2.75;74.14;99406.59;5073003;28;20342;-80
2023/03/28 01:02:38;;;;;;;;;;;;;;;2.69;73.73;99420.53;5092179;28;19924;-79
2023/03/28 01:05:04;;;;;;;;;;;;;;;2.85;74.10;99409.78;5063277;28;19967;-80
2023/03/28 01:07:34;;;;;;;;;;;;;;;2.79;73.79;99410.53;5075445;28;19921;-80
2023/03/28 01:10:00;;;;;;;;;;;;;;;2.77;73.48;99406.44;5073209;28;19923;-80
2023/03/28 01:12:26;;;;;;;;;;;;;;;2.60;73.83;99407.66;5083972;28;19963;-80
2023/03/28 01:14:52;;;;;;;;;;;;;;;2.70;74.23;99408.16;5079058;28;19921;-80
2023/03/28 01:17:17;;;;;;;;;;;;;;;2.84;73.10;99416.03;5088965;28;19928;-80
2023/03/28 01:20:01;;;;;;;;;;;;;;;2.65;73.74;99421.06;5091818;28;19923;-80
2023/03/28 01:22:29;;;;;;;;;;;;;;;2.82;73.81;99428.59;5082915;28;20003;-80
2023/03/28 01:25:00;;;;;;;;;;;;;;;3.02;73.44;99421.72;5088655;28;20383;-80
2023/03/28 01:27:44;;;;;;;;;;;;;;;2.77;74.29;99432.78;5072989;28;19922;-80
2023/03/28 01:30:09;;;;;;;;;;;;;;;2.95;73.55;99427.91;5092430;28;20268;-80
2023/03/28 01:32:35;;;;;;;;;;;;;;;3.02;73.47;99429.63;5086883;28;19924;-79
2023/03/28 01:35:18;;;;;;;;;;;;;;;3.04;73.45;99438.19;5088413;28;19916;-79
2023/03/28 01:37:56;;;;;;;;;;;;;;;3.00;73.37;99444.84;5081711;28;19920;-78
2023/03/28 01:40:25;;;;;;;;;;;;;;;3.00;73.73;99438.72;5092189;28;19989;-78
2023/03/28 01:42:53;;;;;;;;;;;;;;;2.86;74.15;99439.59;5090747;28;19950;-78
2023/03/28 01:45:22;;;;;;;;;;;;;;;2.92;74.27;99437.03;5066602;28;19966;-78
2023/03/28 01:47:50;;;;;;;;;;;;;;;2.91;74.03;99439.84;5089538;28;20287;-78
2023/03/28 01:50:17;;;;;;;;;;;;;;;3.05;73.90;99439.00;5087696;28;19916;-78
2023/03/28 01:52:42;;;;;;;;;;;;;;;2.87;74.59;99442.03;5088757;28;19919;-78
2023/03/28 01:55:19;;;;;;;;;;;;;;;2.72;74.65;99445.69;5073009;28;19941;-78
2023/03/28 01:57:57;;;;;;;;;;;;;;;3.00;74.09;99444.00;5088515;28;19972;-79
2023/03/28 02:00:42;;;;;;;;;;;;;;;3.02;74.24;99439.38;5085216;28;19930;-79
2023/03/28 02:03:17;;;;;;;;;;;;;;;2.97;74.10;99442.56;5079178;28;20422;-78
2023/03/28 02:05:44;;;;;;;;;;;;;;;3.00;74.33;99446.66;5086182;28;19916;-79
2023/03/28 02:08:10;;;;;;;;;;;;;;;2.84;74.76;99445.03;5085294;28;19963;-78
2023/03/28 02:10:37;;;;;;;;;;;;;;;2.86;74.47;99458.84;5092361;28;20007;-79
2023/03/28 02:13:06;;;;;;;;;;;;;;;2.94;73.96;99461.41;5082535;28;19912;-80
2023/03/28 02:15:31;;;;;;;;;;;;;;;2.89;74.53;99462.94;5077762;28;19932;-80
2023/03/28 02:18:01;;;;;;;;;;;;;;;2.84;74.54;99450.31;5064963;28;20273;-79
2023/03/28 02:20:28;;;;;;;;;;;;;;;2.58;75.56;99463.13;5086514;28;19942;-80
2023/03/28 02:23:01;;;;;;;;;;;;;;;2.96;74.38;99454.13;5086243;28;20375;-79
2023/03/28 02:25:28;;;;;;;;;;;;;;;2.94;74.38;99450.84;5056978;28;19952;-79
2023/03/28 02:27:56;;;;;;;;;;;;;;;2.74;75.06;99452.41;5090019;28;19920;-79
2023/03/28 02:30:22;;;;;;;;;;;;;;;2.87;74.84;99449.94;5084930;28;20376;-79
2023/03/28 02:32:49;;;;;;;;;;;;;;;3.09;73.96;99453.44;5087590;28;19931;-79
2023/03/28 02:35:15;;;;;;;;;;;;;;;2.77;74.16;99453.88;5088478;28;20143;-79
2023/03/28 02:37:47;;;;;;;;;;;;;;;2.74;73.84;99448.97;5086673;28;20430;-79
2023/03/28 02:40:31;;;;;;;;;;;;;;;2.68;74.06;99447.88;5086121;28;19921;-79
2023/03/28 02:43:15;;;;;;;;;;;;;;;2.89;74.17;99449.75;5085148;28;19947;-79
2023/03/28 02:45:56;;;;;;;;;;;;;;;2.85;74.49;99451.94;5079957;28;19961;-78
2023/03/28 02:48:28;;;;;;;;;;;;;;;2.56;75.12;99446.69;5082313;28;19931;-79
2023/03/28 02:50:56;;;;;;;;;;;;;;;2.88;74.10;99445.50;5080637;28;19916;-79
2023/03/28 02:53:25;;;;;;;;;;;;;;;2.91;73.97;99445.94;5083610;28;19961;-79
2023/03/28 02:55:54;;;;;;;;;;;;;;;2.96;74.08;99450.66;5083643;28;19920;-79
2023/03/28 02:58:25;;;;;;;;;;;;;;;2.85;73.27;99445.84;5088126;28;19916;-79
2023/03/28 03:00:50;;;;;;;;;;;;;;;2.78;74.27;99450.22;5082419;28;19920;-79
2023/03/28 03:03:16;;;;;;;;;;;;;;;2.83;74.24;99456.59;5064950;28;19927;-79
2023/03/28 03:05:41;;;;;;;;;;;;;;;2.64;73.84;99451.91;5091109;28;19995;-80
2023/03/28 03:08:08;;;;;;;;;;;;;;;2.68;74.39;99465.50;5095373;28;19948;-80
2023/03/28 03:10:33;;;;;;;;;;;;;;;2.54;75.01;99472.41;5088677;28;19920;-79
2023/03/28 03:12:58;;;;;;;;;;;;;;;2.54;74.24;99464.50;5083212;28;20010;-80
2023/03/28 03:15:24;;;;;;;;;;;;;;;2.81;74.22;99469.16;5067841;28;20363;-80
2023/03/28 03:17:50;;;;;;;;;;;;;;;2.83;74.26;99467.13;5087438;28;19920;-79
2023/03/28 03:20:15;;;;;;;;;;;;;;;2.40;75.40;99460.06;5088121;28;19928;-80
2023/03/28 03:22:40;;;;;;;;;;;;;;;2.60;74.92;99469.03;5091624;28;19973;-79
2023/03/28 03:25:07;;;;;;;;;;;;;;;2.75;74.66;99461.94;5084941;28;19920;-79
2023/03/28 03:27:36;;;;;;;;;;;;;;;2.75;74.30;99474.31;5094711;28;19927;-78
2023/03/28 03:30:01;;;;;;;;;;;;;;;2.76;74.60;99470.69;5072094;28;19945;-79
2023/03/28 03:32:27;;;;;;;;;;;;;;;2.74;74.52;99459.50;5092667;28;19916;-79
2023/03/28 03:34:52;;;;;;;;;;;;;;;2.65;75.09;99466.69;5073538;28;19985;-79
2023/03/28 03:37:17;;;;;;;;;;;;;;;2.89;74.24;99462.94;5074826;28;19927;-80
2023/03/28 03:39:43;;;;;;;;;;;;;;;2.78;73.88;99463.41;5090206;28;19916;-79
2023/03/28 03:42:09;;;;;;;;;;;;;;;2.72;74.51;99462.34;5090644;28;20011;-79
2023/03/28 03:44:34;;;;;;;;;;;;;;;2.96;74.13;99475.22;5084401;28;20019;-79
2023/03/28 03:46:59;;;;;;;;;;;;;;;2.56;75.11;99477.50;5062703;28;19928;-80
2023/03/28 03:49:24;;;;;;;;;;;;;;;2.76;74.69;99475.94;5084676;28;19927;-78
2023/03/28 03:51:50;;;;;;;;;;;;;;;2.76;74.39;99474.13;5071012;28;20319;-79
2023/03/28 03:54:15;;;;;;;;;;;;;;;2.62;74.46;99480.22;5069737;28;19948;-78
2023/03/28 03:56:40;;;;;;;;;;;;;;;2.83;74.66;99485.59;5088555;28;20618;-79
2023/03/28 03:59:06;;;;;;;;;;;;;;;2.73;74.57;99486.88;5068013;28;19935;-79
2023/03/28 04:01:31;;;;;;;;;;;;;;;2.85;73.95;99488.03;5071699;28;20671;-79
2023/03/28 04:03:56;;;;;;;;;;;;;;;2.92;73.80;99484.50;5070809;28;19963;-79
2023/03/28 04:06:22;;;;;;;;;;;;;;;2.82;74.25;99481.31;5073519;28;19993;-79
2023/03/28 04:08:47;;;;;;;;;;;;;;;2.91;73.47;99480.22;5090536;28;20383;-79
2023/03/28 04:11:13;;;;;;;;;;;;;;;2.75;74.10;99487.50;5055039;28;19978;-80
2023/03/28 04:13:38;;;;;;;;;;;;;;;2.73;74.44;99486.88;5058174;28;19920;-79
2023/03/28 04:16:03;;;;;;;;;;;;;;;2.96;74.00;99487.56;5074401;28;19961;-79
2023/03/28 04:18:28;;;;;;;;;;;;;;;2.83;74.27;99490.03;5057281;28;20030;-80
2023/03/28 04:20:56;;;;;;;;;;;;;;;2.98;73.89;99486.38;5090054;28;20040;-79
2023/03/28 04:23:24;;;;;;;;;;;;;;;2.71;74.50;99486.25;5092708;28;19940;-79
2023/03/28 04:25:56;;;;;;;;;;;;;;;2.88;74.33;99485.84;5088677;28;19927;-79
2023/03/28 04:28:24;;;;;;;;;;;;;;;2.89;74.06;99492.75;5088072;28;20343;-79
2023/03/28 04:30:53;;;;;;;;;;;;;;;2.80;74.39;99498.28;5070919;28;19920;-79
2023/03/28 04:33:18;;;;;;;;;;;;;;;2.93;74.14;99506.38;5087370;28;19923;-80
2023/03/28 04:35:44;;;;;;;;;;;;;;;2.87;74.30;99507.13;5065500;28;19928;-79
2023/03/28 04:38:09;;;;;;;;;;;;;;;2.89;74.24;99505.94;5081692;28;20128;-79
2023/03/28 04:40:34;;;;;;;;;;;;;;;2.99;73.94;99503.81;5084450;28;19979;-80
2023/03/28 04:43:00;;;;;;;;;;;;;;;2.77;74.25;99507.41;5062939;28;19921;-80
2023/03/28 04:45:25;;;;;;;;;;;;;;;2.96;74.05;99506.03;5090406;28;19935;-79
2023/03/28 04:47:50;;;;;;;;;;;;;;;2.94;74.12;99514.13;5057036;28;20334;-79
2023/03/28 04:50:16;;;;;;;;;;;;;;;2.98;74.16;99517.19;5092387;28;20034;-79
2023/03/28 04:52:41;;;;;;;;;;;;;;;2.89;73.78;99521.75;5076012;28;19970;-79
2023/03/28 04:55:06;;;;;;;;;;;;;;;2.83;74.26;99522.50;5067274;28;19920;-79
2023/03/28 04:57:32;;;;;;;;;;;;;;;2.88;72.97;99529.84;5069306;28;19920;-78
2023/03/28 04:59:57;;;;;;;;;;;;;;;2.65;73.77;99529.94;5087411;28;20123;-79
2023/03/28 05:02:22;;;;;;;;;;;;;;;2.56;73.94;99528.38;5057587;28;19920;-78
2023/03/28 05:04:47;;;;;;;;;;;;;;;2.46;74.65;99527.84;5086486;28;19916;-78
2023/03/28 05:07:13;;;;;;;;;;;;;;;2.37;74.15;99535.97;5091097;28;20456;-78
2023/03/28 05:09:38;;;;;;;;;;;;;;;2.23;74.36;99538.41;5067432;28;19921;-78
2023/03/28 05:12:04;;;;;;;;;;;;;;;2.17;74.33;99535.66;5072486;28;19974;-78
2023/03/28 05:14:29;;;;;;;;;;;;;;;2.07;75.20;99546.47;5069035;28;20053;-79
2023/03/28 05:16:55;;;;;;;;;;;;;;;2.12;74.88;99545.91;5069147;28;19928;-78
2023/03/28 05:19:20;;;;;;;;;;;;;;;2.12;74.90;99552.00;5073351;28;20025;-78
2023/03/28 05:21:45;;;;;;;;;;;;;;;1.95;75.53;99561.03;5088708;28;19931;-78
2023/03/28 05:24:11;;;;;;;;;;;;;;;2.06;75.02;99565.06;5069916;28;19927;-78
2023/03/28 05:26:36;;;;;;;;;;;;;;;2.13;75.18;99563.34;5063513;28;19928;-78
2023/03/28 05:29:01;;;;;;;;;;;;;;;1.94;74.96;99563.84;5066272;28;20018;-79
2023/03/28 05:31:29;;;;;;;;;;;;;;;2.01;75.38;99573.47;5086048;28;20010;-79
2023/03/28 05:33:54;;;;;;;;;;;;;;;2.10;75.63;99579.50;5080988;28;20425;-78
2023/03/28 05:36:19;;;;;;;;;;;;;;;2.13;75.16;99569.44;5083464;28;19923;-79
2023/03/28 05:38:45;;;;;;;;;;;;;;;2.16;75.26;99574.34;5067558;28;19975;-79
2023/03/28 05:41:10;;;;;;;;;;;;;;;2.22;75.25;99578.09;5080167;28;19920;-79
2023/03/28 05:43:37;;;;;;;;;;;;;;;2.18;75.24;99579.44;5053089;28;20449;-80
2023/03/28 05:46:03;;;;;;;;;;;;;;;2.37;74.97;99578.13;5052250;28;19920;-80
2023/03/28 05:48:28;;;;;;;;;;;;;;;2.34;75.02;99574.03;5069764;28;19928;-79
2023/03/28 05:50:53;;;;;;;;;;;;;;;2.49;74.95;99579.34;5081863;28;19920;-80
2023/03/28 05:53:19;;;;;;;;;;;;;;;2.47;75.02;99587.41;5071448;28;19920;-79
2023/03/28 05:55:44;;;;;;;;;;;;;;;2.63;74.63;99594.34;5085962;28;20014;-79
2023/03/28 05:58:10;;;;;;;;;;;;;;;2.55;74.90;99592.63;5089418;28;19916;-79
2023/03/28 06:00:36;;;;;;;;;;;;;;;2.52;74.77;99587.69;5088942;28;20453;-79
2023/03/28 06:03:01;;;;;;;;;;;;;;;2.54;75.24;99595.41;5070530;28;19916;-79
2023/03/28 06:05:26;;;;;;;;;;;;;;;2.54;75.23;99598.06;5088514;28;20322;-80
2023/03/28 06:07:51;;;;;;;;;;;;;;;2.63;74.83;99599.63;5085926;28;19916;-80
2023/03/28 06:10:17;;;;;;;;;;;;;;;2.60;75.11;99602.63;5082563;28;19993;-79
2023/03/28 06:12:42;;;;;;;;;;;;;;;2.65;74.75;99601.09;5071049;28;19920;-79
2023/03/28 06:15:08;;;;;;;;;;;;;;;2.55;75.26;99597.91;5067864;28;19916;-80
2023/03/28 06:17:33;;;;;;;;;;;;;;;2.42;74.65;99608.22;5089383;28;19924;-80
2023/03/28 06:19:58;;;;;;;;;;;;;;;2.45;75.51;99612.28;5067469;28;19920;-80
2023/03/28 06:22:24;;;;;;;;;;;;;;;2.77;74.54;99620.75;5083536;28;20023;-79
2023/03/28 06:24:49;;;;;;;;;;;;;;;2.71;74.88;99628.56;5078910;28;19917;-79
2023/03/28 06:27:14;;;;;;;;;;;;;;;2.69;75.40;99633.97;5069830;28;19930;-79
2023/03/28 06:29:40;;;;;;;;;;;;;;;2.79;74.74;99628.47;5088113;28;19912;-79
2023/03/28 06:32:05;;;;;;;;;;;;;;;2.75;74.69;99641.16;5059070;28;19928;-79
2023/03/28 06:34:31;;;;;;;;;;;;;;;2.83;74.64;99653.47;5067466;28;19920;-79
2023/03/28 06:36:56;;;;;;;;;;;;;;;2.79;74.79;99637.19;5088402;28;20455;-79
2023/03/28 06:39:21;;;;;;;;;;;;;;;2.80;75.07;99641.47;5063364;28;19963;-79
2023/03/28 06:41:46;;;;;;;;;;;;;;;2.77;74.86;99654.19;5065364;28;19924;-79
2023/03/28 06:44:11;;;;;;;;;;;;;;;2.83;75.03;99656.09;5054161;28;19928;-79
2023/03/28 06:46:37;;;;;;;;;;;;;;;2.89;75.19;99650.94;5072556;28;20291;-79
2023/03/28 06:49:03;;;;;;;;;;;;;;;2.88;74.98;99659.81;5088329;28;20332;-80
2023/03/28 06:51:28;;;;;;;;;;;;;;;2.83;75.11;99666.66;5065736;28;20019;-80
2023/03/28 06:53:53;;;;;;;;;;;;;;;2.94;74.98;99672.31;5083808;28;19949;-80
2023/03/28 06:56:19;;;;;;;;;;;;;;;2.90;74.65;99673.69;5081859;28;19920;-79
2023/03/28 06:58:44;;;;;;;;;;;;;;;2.83;75.24;99680.66;5086232;28;20033;-79
2023/03/28 07:01:10;;;;;;;;;;;;;;;3.00;74.88;99676.88;5089420;28;19925;-79
2023/03/28 07:03:35;;;;;;;;;;;;;;;3.01;75.10;99686.41;5083226;28;19920;-79
2023/03/28 07:06:05;;;;;;;;;;;;;;;3.00;75.23;99682.13;5070831;28;19943;-80
2023/03/28 07:08:30;;;;;;;;;;;;;;;3.00;75.02;99682.13;5081686;28;20112;-79
2023/03/28 07:10:55;;;;;;;;;;;;;;;2.99;75.46;99677.84;5083959;28;19928;-79
2023/03/28 07:13:21;;;;;;;;;;;;;;;2.99;75.33;99680.47;5085697;28;20407;-79
2023/03/28 07:15:46;;;;;;;;;;;;;;;3.09;75.22;99685.50;5080216;28;20405;-79
2023/03/28 07:18:11;;;;;;;;;;;;;;;3.04;75.23;99682.59;5081271;28;20011;-80
2023/03/28 07:20:38;;;;;;;;;;;;;;;3.09;75.15;99679.41;5059440;28;19947;-80
2023/03/28 07:23:03;;;;;;;;;;;;;;;3.06;75.06;99680.59;5065564;28;19961;-79
2023/03/28 07:25:29;;;;;;;;;;;;;;;3.20;75.10;99676.31;5064832;28;19927;-79
2023/03/28 07:27:54;;;;;;;;;;;;;;;3.23;75.27;99683.91;5080341;28;19928;-79
2023/03/28 07:30:19;;;;;;;;;;;;;;;3.13;75.30;99684.16;5061201;28;21034;-79
2023/03/28 07:32:45;;;;;;;;;;;;;;;3.18;75.23;99683.59;5080082;28;19920;-80
2023/03/28 07:35:10;;;;;;;;;;;;;;;3.24;75.18;99680.25;5079637;28;19924;-79
2023/03/28 07:37:35;;;;;;;;;;;;;;;3.19;75.28;99691.34;5064732;28;20423;-78
2023/03/28 07:40:00;;;;;;;;;;;;;;;3.27;75.31;99687.81;5064669;28;19920;-80
2023/03/28 07:42:26;;;;;;;;;;;;;;;3.33;75.30;99690.53;5079358;28;19925;-80
2023/03/28 07:44:52;;;;;;;;;;;;;;;3.14;75.49;99690.25;5080932;28;19971;-79
2023/03/28 07:47:17;;;;;;;;;;;;;;;3.31;75.06;99691.72;5062817;28;19939;-79
2023/03/28 07:49:44;;;;;;;;;;;;;;;3.34;75.24;99701.91;5079665;28;20645;-79
2023/03/28 07:52:10;;;;;;;;;;;;;;;3.38;75.08;99722.47;5081386;28;19924;-79
2023/03/28 07:54:36;;;;;;;;;;;;;;;3.32;75.30;99710.00;5062936;28;19977;-80
2023/03/28 07:57:01;;;;;;;;;;;;;;;3.35;75.27;99714.91;5079317;28;20380;-79
2023/03/28 07:59:26;;;;;;;;;;;;;;;3.48;74.85;99720.38;5061012;28;19916;-79
2023/03/28 08:01:51;;;;;;;;;;;;;;;3.53;74.66;99719.84;5053184;28;19936;-79
2023/03/28 08:04:17;;;;;;;;;;;;;;;3.60;74.79;99723.41;5063246;28;19924;-80
2023/03/28 08:06:42;;;;;;;;;;;;;;;3.44;74.93;99723.56;5077115;28;20562;-80
2023/03/28 08:09:09;;;;;;;;;;;;;;;3.42;74.82;99734.31;5048396;28;19924;-80
2023/03/28 08:11:35;;;;;;;;;;;;;;;3.60;74.64;99740.03;5058245;28;20583;-80
2023/03/28 08:14:01;;;;;;;;;;;;;;;3.52;74.95;99734.03;5060635;28;19928;-79
2023/03/28 08:16:26;;;;;;;;;;;;;;;3.55;74.30;99734.50;5075517;28;19919;-79
2023/03/28 08:18:51;;;;;;;;;;;;;;;3.47;74.62;99734.56;5079554;28;19927;-79
2023/03/28 08:21:17;;;;;;;;;;;;;;;3.54;74.66;99739.94;5046409;28;19928;-79
2023/03/28 08:23:43;;;;;;;;;;;;;;;3.51;74.63;99737.69;5059835;28;19964;-80
2023/03/28 08:26:09;;;;;;;;;;;;;;;3.61;74.05;99738.22;5061240;28;19928;-79
2023/03/28 08:28:35;;;;;;;;;;;;;;;3.66;74.13;99733.22;5081046;28;19931;-80
2023/03/28 08:31:01;;;;;;;;;;;;;;;3.75;74.22;99735.59;5077829;28;20376;-80
2023/03/28 08:33:27;;;;;;;;;;;;;;;3.76;74.33;99734.56;5079134;28;19916;-80
2023/03/28 08:35:53;;;;;;;;;;;;;;;3.89;73.89;99739.19;5058714;28;19935;-79
2023/03/28 08:38:18;;;;;;;;;;;;;;;3.85;73.81;99743.22;5065503;28;19924;-79
2023/03/28 08:41:04;;;;;;;;;;;;;;;3.85;73.72;99745.03;5059448;28;19928;-80
2023/03/28 08:43:35;;;;;;;;;;;;;;;4.05;73.09;99738.19;5076947;28;19924;-80
2023/03/28 08:46:01;;;;;;;;;;;;;;;3.98;73.52;99748.66;5075804;28;19927;-80
2023/03/28 08:48:40;;;;;;;;;;;;;;;3.95;73.98;99754.34;5059495;28;20380;-81
2023/03/28 08:51:25;;;;;;;;;;;;;;;4.13;73.45;99751.31;5054406;28;20314;-79
2023/03/28 08:53:59;;;;;;;;;;;;;;;4.12;72.98;99750.47;5076184;28;19959;-80
2023/03/28 08:56:26;;;;;;;;;;;;;;;4.16;73.12;99754.38;5062048;28;19947;-80
2023/03/28 08:58:57;;;;;;;;;;;;;;;4.11;73.01;99750.66;5060015;28;19920;-80
2023/03/28 09:01:31;;;;;;;;;;;;;;;4.12;72.94;99753.13;5073450;28;21476;-80
2023/03/28 09:03:57;;;;;;;;;;;;;;;4.31;72.30;99743.78;5079327;28;20114;-81
2023/03/28 09:06:27;;;;;;;;;;;;;;;4.20;72.82;99750.38;5076065;28;19999;-80
2023/03/28 09:08:52;;;;;;;;;;;;;;;4.25;72.29;99758.56;5047520;28;19921;-80
2023/03/28 09:11:28;;;;;;;;;;;;;;;4.34;72.40;99746.88;5078511;28;20363;-80
2023/03/28 09:14:12;;;;;;;;;;;;;;;4.37;72.18;99751.78;5056115;28;19924;-80
2023/03/28 09:16:56;;;;;;;;;;;;;;;4.33;71.71;99752.34;5061773;28;19924;-80
2023/03/28 09:19:43;;;;;;;;;;;;;;;4.55;71.52;99754.84;5078014;28;19920;-80
2023/03/28 09:22:19;;;;;;;;;;;;;;;4.68;70.98;99751.50;5080031;28;19920;-80
2023/03/28 09:24:47;;;;;;;;;;;;;;;4.63;71.25;99748.59;5079128;28;20010;-80
2023/03/28 09:27:13;;;;;;;;;;;;;;;4.59;71.32;99752.63;5078412;28;20376;-80
2023/03/28 09:29:41;;;;;;;;;;;;;;;4.68;70.57;99753.31;5078100;28;20877;-80
2023/03/28 09:32:11;;;;;;;;;;;;;;;4.66;71.06;99750.88;5062209;28;19979;-80
2023/03/28 09:34:38;;;;;;;;;;;;;;;4.76;71.30;99753.22;5055424;28;19942;-81
2023/03/28 09:37:15;;;;;;;;;;;;;;;4.83;70.73;99754.91;5062833;28;19924;-80
2023/03/28 09:39:48;;;;;;;;;;;;;;;4.84;70.65;99753.06;5076763;28;19935;-80
2023/03/28 09:42:26;;;;;;;;;;;;;;;4.92;69.97;99755.59;5044828;28;20495;-80
2023/03/28 09:45:00;;;;;;;;;;;;;;;4.75;69.19;99756.84;5076975;28;20142;-80
2023/03/28 09:47:26;;;;;;;;;;;;;;;4.77;70.27;99757.47;5058582;28;19963;-80
2023/03/28 09:49:51;;;;;;;;;;;;;;;4.80;69.80;99746.53;5063274;28;19971;-80
2023/03/28 09:52:17;;;;;;;;;;;;;;;4.90;69.61;99749.66;5048764;28;19935;-80
2023/03/28 09:54:47;;;;;;;;;;;;;;;4.90;70.08;99758.44;5083206;28;19920;-80
2023/03/28 09:57:12;;;;;;;;;;;;;;;5.04;69.46;99746.97;5063229;28;19920;-80
2023/03/28 09:59:37;;;;;;;;;;;;;;;4.96;69.42;99748.91;5058953;28;20511;-80
2023/03/28 10:02:03;;;;;;;;;;;;;;;5.08;70.03;99757.97;5044859;28;19924;-80
2023/03/28 10:04:29;;;;;;;;;;;;;;;5.02;69.70;99754.25;5078838;28;19941;-80
2023/03/28 10:07:18;;;;;;;;;;;;;;;5.01;69.94;99754.44;5058904;28;19923;-81
2023/03/28 10:09:49;;;;;;;;;;;;;;;5.11;69.08;99754.97;5075602;28;19970;-80
2023/03/28 10:12:31;;;;;;;;;;;;;;;5.18;69.72;99756.63;5063622;28;20498;-79
2023/03/28 10:14:56;;;;;;;;;;;;;;;5.36;69.19;99760.63;5057707;28;19931;-80
2023/03/28 10:17:28;;;;;;;;;;;;;;;5.33;68.62;99762.66;5074113;28;19925;-80
2023/03/28 10:19:58;;;;;;;;;;;;;;;5.50;69.06;99751.78;5060440;28;19924;-80
2023/03/28 10:22:25;;;;;;;;;;;;;;;5.56;69.18;99757.13;5077732;28;19927;-81
2023/03/28 10:24:51;;;;;;;;;;;;;;;5.25;67.75;99754.88;5060693;28;19924;-81
2023/03/28 10:27:24;;;;;;;;;;;;;;;5.51;69.50;99748.94;5085310;28;20288;-82
2023/03/28 10:29:51;;;;;;;;;;;;;;;5.57;68.59;99755.31;5066535;28;19920;-81
2023/03/28 10:32:27;;;;;;;;;;;;;;;5.57;69.26;99752.66;5071174;28;20350;-81
2023/03/28 10:35:05;;;;;;;;;;;;;;;5.57;68.40;99750.78;5077533;28;19947;-82
2023/03/28 10:37:32;;;;;;;;;;;;;;;5.38;66.80;99750.66;5071065;28;20544;-82
2023/03/28 10:39:58;;;;;;;;;;;;;;;5.46;68.27;99748.69;5071095;28;20318;-81
2023/03/28 10:42:24;;;;;;;;;;;;;;;5.34;67.48;99744.94;5044507;28;20366;-81
2023/03/28 10:44:57;;;;;;;;;;;;;;;5.78;68.02;99737.50;5051044;28;20034;-81
2023/03/28 10:47:23;;;;;;;;;;;;;;;5.75;67.30;99751.13;5079283;28;19920;-81
2023/03/28 10:49:51;;;;;;;;;;;;;;;5.81;67.87;99750.34;5059839;28;20245;-81
2023/03/28 10:52:23;;;;;;;;;;;;;;;5.62;66.95;99747.56;5077724;28;19957;-81
2023/03/28 10:55:03;;;;;;;;;;;;;;;5.80;67.60;99746.06;5078576;28;19920;-81
2023/03/28 10:57:49;;;;;;;;;;;;;;;5.91;67.53;99748.19;5074271;28;19915;-80
2023/03/28 11:00:21;;;;;;;;;;;;;;;5.86;67.32;99745.31;5054870;28;19924;-80
2023/03/28 11:02:56;;;;;;;;;;;;;;;5.90;66.68;99741.25;5078570;28;20006;-81
2023/03/28 11:05:21;;;;;;;;;;;;;;;5.82;66.52;99746.69;5078336;28;19973;-81
2023/03/28 11:07:58;;;;;;;;;;;;;;;6.01;65.77;99740.69;5078477;28;20313;-81
2023/03/28 11:10:31;;;;;;;;;;;;;;;6.07;65.63;99737.25;5059452;28;19924;-82
2023/03/28 11:13:15;;;;;;;;;;;;;;;6.11;64.89;99737.69;5058327;28;21003;-81
2023/03/28 11:15:40;;;;;;;;;;;;;;;6.03;64.37;99736.00;5056327;28;20312;-81
2023/03/28 11:18:24;;;;;;;;;;;;;;;6.12;65.83;99734.00;5075650;28;19920;-82
2023/03/28 11:20:52;;;;;;;;;;;;;;;6.16;64.78;99737.09;5060426;28;19974;-81
2023/03/28 11:23:27;;;;;;;;;;;;;;;6.29;64.39;99735.28;5076197;28;19924;-81
2023/03/28 11:26:31;;;;;;;;;;;;;;;6.22;63.64;99738.94;5076033;28;20007;-81
2023/03/28 11:28:58;;;;;;;;;;;;;;;6.34;64.67;99738.16;5033568;28;20066;-80
2023/03/28 11:31:25;;;;;;;;;;;;;;;6.36;63.14;99730.00;5017654;28;19916;-81
2023/03/28 11:34:00;;;;;;;;;;;;;;;6.51;63.67;99720.06;5056495;28;20297;-81
2023/03/28 11:36:29;;;;;;;;;;;;;;;6.44;59.18;99716.59;5074489;28;19920;-80
2023/03/28 11:38:59;;;;;;;;;;;;;;;6.79;61.67;99720.72;5060456;28;19916;-81
2023/03/28 11:41:28;;;;;;;;;;;;;;;7.02;61.03;99715.00;5077736;28;19925;-81
2023/03/28 11:43:57;;;;;;;;;;;;;;;7.17;61.15;99710.31;5073999;28;19924;-81
2023/03/28 11:46:22;;;;;;;;;;;;;;;7.18;60.11;99714.59;5077732;28;19920;-80
2023/03/28 11:48:50;;;;;;;;;;;;;;;7.16;61.20;99722.78;5062197;28;20305;-80
2023/03/28 11:51:15;;;;;;;;;;;;;;;7.09;60.58;99710.53;5074773;28;19954;-80
2023/03/28 11:53:46;;;;;;;;;;;;;;;6.96;61.11;99714.00;5077327;28;19919;-80
2023/03/28 11:56:33;;;;;;;;;;;;;;;6.77;57.63;99709.50;5075619;28;19924;-80
2023/03/28 11:59:05;;;;;;;;;;;;;;;6.91;62.00;99712.97;5053583;28;19920;-80
2023/03/28 12:01:36;;;;;;;;;;;;;;;7.00;60.90;99714.41;5076819;28;19924;-80
2023/03/28 12:04:08;;;;;;;;;;;;;;;6.88;61.08;99703.56;5076428;28;19920;-80
2023/03/28 12:06:36;;;;;;;;;;;;;;;6.89;61.65;99699.09;5074628;28;19933;-80
2023/03/28 12:09:21;;;;;;;;;;;;;;;6.73;62.14;99702.94;5056849;28;19916;-80
2023/03/28 12:11:51;;;;;;;;;;;;;;;6.88;59.26;99700.13;5024663;28;20395;-81
2023/03/28 12:14:16;;;;;;;;;;;;;;;6.99;60.18;99695.00;5081545;28;19941;-80
2023/03/28 12:16:46;;;;;;;;;;;;;;;7.05;59.12;99701.34;5074591;28;19924;-80
2023/03/28 12:19:14;;;;;;;;;;;;;;;6.98;59.13;99698.69;5076457;28;19931;-81
2023/03/28 12:21:42;;;;;;;;;;;;;;;6.82;58.35;99685.81;5076430;28;20078;-80
2023/03/28 12:24:26;;;;;;;;;;;;;;;7.04;60.31;99689.91;5078733;28;19916;-80
2023/03/28 12:27:18;;;;;;;;;;;;;;;7.04;60.10;99679.28;5078596;28;19920;-81
2023/03/28 12:30:03;;;;;;;;;;;;;;;7.01;61.35;99677.03;5045357;28;19975;-80
2023/03/28 12:32:47;;;;;;;;;;;;;;;6.97;61.28;99678.47;5078187;28;20363;-80
2023/03/28 12:35:30;;;;;;;;;;;;;;;7.03;59.99;99682.97;5082901;28;19920;-81
2023/03/28 12:38:08;;;;;;;;;;;;;;;7.11;58.48;99672.13;5063308;28;19920;-80
2023/03/28 12:40:48;;;;;;;;;;;;;;;7.18;57.89;99675.59;5080926;28;19973;-81
2023/03/28 12:43:15;;;;;;;;;;;;;;;7.12;58.48;99679.06;5081259;28;19927;-81
2023/03/28 12:45:44;;;;;;;;;;;;;;;7.26;58.20;99666.59;5080597;28;19916;-80
2023/03/28 12:48:45;;;;;;;;;;;;;;;7.28;58.00;99670.69;5084600;28;20277;-80
2023/03/28 12:51:21;;;;;;;;;;;;;;;7.24;57.46;99669.47;5069535;28;19916;-80
2023/03/28 12:54:01;;;;;;;;;;;;;;;7.12;56.44;99665.78;5088119;28;19927;-80
2023/03/28 12:56:26;;;;;;;;;;;;;;;7.42;57.29;99663.50;5081949;28;20623;-81
2023/03/28 12:58:55;;;;;;;;;;;;;;;7.40;57.70;99669.00;5064734;28;20007;-82
2023/03/28 13:01:33;;;;;;;;;;;;;;;7.40;58.12;99668.22;5083554;28;19924;-80
2023/03/28 13:04:17;;;;;;;;;;;;;;;7.33;59.13;99672.72;5086535;28;19920;-80
2023/03/28 13:06:46;;;;;;;;;;;;;;;7.22;57.96;99668.03;5080445;28;19997;-81